KBIS/BIS METAR and TAF weather

Enter ICAO airport designator
Station Type Date Time Source
KBIS METAR 2022/07/01 00:52 UTC NOAA

KBIS 010052Z 33011G18KT 10SM CLR 24/08 A3002 RMK AO2 SLP159 T02440078


Station Type Date Time Source
KBIS Decoded METAR 2022/07/01 00:52 UTC NOAA

BISMARCK MUNICIPAL AIRPORT, ND, United States (KBIS) 46-47N 100-45W 503M
Jun 30, 2022 - 08:52 PM EDT / 2022.07.01 0052 UTC
Wind: from the NNW (330 degrees) at 13 MPH (11 KT) gusting to 21 MPH (18 KT):0
Visibility: 10 mile(s):0
Sky conditions: clear
Temperature: 75.9 F (24.4 C)
Dew Point: 46.0 F (7.8 C)
Relative Humidity: 34%
Pressure (altimeter): 30.02 in. Hg (1016 hPa)
ob: KBIS 010052Z 33011G18KT 10SM CLR 24/08 A3002 RMK AO2 SLP159 T02440078
cycle: 1

Station Type Date Time Source
KBIS TAF 2022/06/30 18:24 UTC NOAA

TAF KBIS 301723Z 3018/0118 32017G25KT P6SM SCT050
FM010000 33012KT P6SM FEW250
FM010200 34009KT P6SM FEW250

Example: see airport list